Time;durP1;ratioP1;P1;durP2;ratioP2;P2;SDS_P1;SDS_P2;PMS_P1;PMS_P2;Temp;Humidity;BMP_temperature;BMP_pressure;BME280_temperature;BME280_humidity;BME280_pressure;Samples;Min_cycle;Max_cycle;Signal;HPM_P1;HPM_P2
2021/06/08 00:00:11;;;;;;;;;0.00;0.00;;;;;20.72;49.00;101722.78;5111263;27;46285;-59
2021/06/08 00:02:36;;;;;;;;;0.00;0.00;;;;;20.69;48.98;101715.09;5102844;27;45233;-59
2021/06/08 00:05:02;;;;;;;;;0.00;0.00;;;;;20.65;49.72;101711.94;5110171;27;45478;-59
2021/06/08 00:07:28;;;;;;;;;0.00;0.00;;;;;20.60;50.01;101705.38;5121989;27;45166;-59
2021/06/08 00:09:53;;;;;;;;;0.00;0.00;;;;;20.52;50.00;101699.97;5123335;27;48080;-59
2021/06/08 00:12:18;;;;;;;;;0.00;0.00;;;;;20.49;49.49;101699.31;5123308;27;45296;-59
2021/06/08 00:14:44;;;;;;;;;0.00;0.00;;;;;20.50;49.76;101705.50;5123358;27;45297;-59
2021/06/08 00:17:09;;;;;;;;;0.00;0.00;;;;;20.50;49.08;101694.81;5123582;27;45389;-59
2021/06/08 00:19:34;;;;;;;;;0.00;0.00;;;;;20.48;49.34;101694.16;5122483;27;46335;-59
2021/06/08 00:21:59;;;;;;;;;0.00;0.00;;;;;20.47;49.44;101695.13;5122942;27;45279;-58
2021/06/08 00:24:25;;;;;;;;;0.00;0.00;;;;;20.45;49.48;101689.13;5104936;27;45417;-58
2021/06/08 00:26:51;;;;;;;;;0.00;0.00;;;;;20.42;49.57;101698.28;5123251;27;45317;-59
2021/06/08 00:29:16;;;;;;;;;0.00;0.00;;;;;20.41;49.80;101693.09;5122544;27;47637;-59
2021/06/08 00:31:42;;;;;;;;;0.00;0.00;;;;;20.40;49.44;101692.28;5123200;27;45420;-59
2021/06/08 00:34:07;;;;;;;;;0.00;0.00;;;;;20.40;50.00;101699.44;5122487;27;45262;-58
2021/06/08 00:36:32;;;;;;;;;0.00;0.00;;;;;20.39;49.39;101697.75;5123148;27;45352;-60
2021/06/08 00:38:57;;;;;;;;;0.00;0.00;;;;;20.34;49.75;101703.59;5122919;27;46085;-59
2021/06/08 00:41:45;;;;;;;;;0.00;0.00;;;;;20.32;49.40;101694.06;5122901;27;45308;-59
2021/06/08 00:44:13;;;;;;;;;0.00;0.00;;;;;20.30;49.58;101702.22;5122749;27;45338;-58
2021/06/08 00:46:40;;;;;;;;;0.00;0.00;;;;;20.24;49.38;101697.56;5123431;27;45506;-59
2021/06/08 00:49:06;;;;;;;;;0.00;0.00;;;;;20.21;49.32;101688.00;5122834;27;46462;-59
2021/06/08 00:51:32;;;;;;;;;0.00;0.00;;;;;20.22;49.93;101699.53;5122663;27;45285;-58
2021/06/08 00:53:59;;;;;;;;;0.00;0.00;;;;;20.22;49.65;101699.53;5122887;27;45350;-59
2021/06/08 00:56:24;;;;;;;;;0.00;0.00;;;;;20.16;49.97;101695.66;5123082;27;45535;-59
2021/06/08 00:58:50;;;;;;;;;0.00;0.00;;;;;20.17;49.70;101704.50;5121846;27;46259;-59
2021/06/08 01:01:15;;;;;;;;;0.00;0.00;;;;;20.16;49.54;101698.34;5109529;27;45406;-59
2021/06/08 01:03:41;;;;;;;;;0.00;0.00;;;;;20.16;49.65;101701.00;5122305;27;45159;-58
2021/06/08 01:06:06;;;;;;;;;0.00;0.00;;;;;20.18;49.98;101704.34;5102586;27;45144;-59
2021/06/08 01:08:31;;;;;;;;;0.00;0.00;;;;;20.20;49.66;101706.88;5116031;27;46468;-59
2021/06/08 01:10:57;;;;;;;;;0.00;0.00;;;;;20.21;49.80;101706.69;5122917;27;45228;-59
2021/06/08 01:13:26;;;;;;;;;0.00;0.00;;;;;20.20;49.82;101702.34;5121857;27;45705;-58
2021/06/08 01:15:51;;;;;;;;;0.00;0.00;;;;;20.16;49.32;101698.34;5123013;27;45530;-60
2021/06/08 01:18:17;;;;;;;;;0.00;0.00;;;;;20.09;50.14;101697.31;5122260;27;45400;-58
2021/06/08 01:20:42;;;;;;;;;0.00;0.00;;;;;20.06;50.22;101694.94;5122433;27;46119;-59
2021/06/08 01:23:07;;;;;;;;;0.00;0.00;;;;;19.99;50.20;101699.25;5122652;27;45749;-58
2021/06/08 01:25:33;;;;;;;;;0.00;0.00;;;;;19.97;50.51;101701.22;5122910;27;45231;-58
2021/06/08 01:27:59;;;;;;;;;0.00;0.00;;;;;19.94;50.03;101698.88;5121836;27;45562;-59
2021/06/08 01:30:26;;;;;;;;;0.00;0.00;;;;;19.92;51.65;101687.53;5122563;27;45187;-59
2021/06/08 01:32:53;;;;;;;;;3.00;0.00;;;;;19.88;51.61;101689.66;5124321;27;45315;-59
2021/06/08 01:35:19;;;;;;;;;0.00;0.00;;;;;19.84;50.45;101691.81;5126275;27;45309;-58
2021/06/08 01:37:46;;;;;;;;;0.00;0.00;;;;;19.83;50.35;101695.47;5125786;27;46552;-59
2021/06/08 01:40:17;;;;;;;;;0.00;0.00;;;;;19.82;50.66;101696.44;5126212;27;45360;-59
2021/06/08 01:42:42;;;;;;;;;0.00;0.00;;;;;19.82;50.47;101698.28;5125955;27;45248;-59
2021/06/08 01:45:08;;;;;;;;;0.00;0.00;;;;;19.80;50.86;101702.94;5126091;27;45255;-58
2021/06/08 01:47:34;;;;;;;;;0.00;0.00;;;;;19.80;50.75;101697.59;5125220;27;45784;-59
2021/06/08 01:49:59;;;;;;;;;0.00;0.00;;;;;19.77;50.65;101698.75;5125604;27;45440;-59
2021/06/08 01:52:34;;;;;;;;;0.00;0.00;;;;;19.79;50.79;101702.13;5125723;27;45247;-60
2021/06/08 01:55:24;;;;;;;;;0.00;0.00;;;;;19.79;50.29;101707.44;5125773;27;45515;-59
2021/06/08 01:58:02;;;;;;;;;0.00;0.00;;;;;19.78;50.77;101710.25;5124864;27;45764;-60
2021/06/08 02:00:39;;;;;;;;;0.00;0.00;;;;;19.77;50.55;101714.75;5111341;27;45403;-58
2021/06/08 02:03:15;;;;;;;;;0.00;0.00;;;;;19.73;51.05;101702.72;5114399;27;45353;-58
2021/06/08 02:06:15;;;;;;;;;0.00;0.00;;;;;19.76;51.18;101717.56;5108182;27;45436;-59
2021/06/08 02:08:43;;;;;;;;;0.00;0.00;;;;;19.66;51.29;101696.31;5120324;27;46440;-59
2021/06/08 02:11:22;;;;;;;;;0.00;0.00;;;;;19.74;51.55;101711.56;5125600;27;45261;-59
2021/06/08 02:13:50;;;;;;;;;0.00;0.00;;;;;19.67;51.30;101709.50;5125034;27;45388;-59
2021/06/08 02:16:24;;;;;;;;;0.00;0.00;;;;;19.65;51.44;101713.28;5115194;27;45198;-59
2021/06/08 02:18:51;;;;;;;;;0.00;0.00;;;;;19.61;51.71;101720.78;5123367;27;46523;-59
2021/06/08 02:21:48;;;;;;;;;0.00;0.00;;;;;19.57;51.90;101715.91;5125223;27;45340;-59
2021/06/08 02:24:19;;;;;;;;;0.00;0.00;;;;;19.54;51.74;101726.88;5104090;27;45217;-59
2021/06/08 02:26:45;;;;;;;;;0.00;0.00;;;;;19.48;52.63;101728.31;5125482;27;45229;-58
2021/06/08 02:29:12;;;;;;;;;0.00;0.00;;;;;19.43;52.44;101725.28;5124794;27;45292;-59
2021/06/08 02:31:40;;;;;;;;;0.00;0.00;;;;;19.41;52.24;101732.59;5125356;27;45308;-58
2021/06/08 02:34:06;;;;;;;;;0.00;0.00;;;;;19.40;52.96;101720.28;5125196;27;45349;-59
2021/06/08 02:36:32;;;;;;;;;0.00;0.00;;;;;19.38;52.99;101725.75;5124797;27;45327;-60
2021/06/08 02:38:58;;;;;;;;;0.00;0.00;;;;;19.34;52.20;101729.69;5124875;27;45413;-59
2021/06/08 02:41:25;;;;;;;;;0.00;0.00;;;;;19.31;52.50;101730.00;5124941;27;45323;-59
2021/06/08 02:43:52;;;;;;;;;0.00;0.00;;;;;19.28;53.09;101732.97;5124735;27;45302;-59
2021/06/08 02:46:20;;;;;;;;;0.00;0.00;;;;;19.24;53.03;101734.25;5125227;27;45253;-58
2021/06/08 02:48:47;;;;;;;;;0.00;0.00;;;;;19.24;52.87;101736.91;5124942;27;47538;-59
2021/06/08 02:51:13;;;;;;;;;0.00;0.00;;;;;19.19;52.90;101737.38;5124830;27;45227;-59
2021/06/08 02:53:39;;;;;;;;;0.00;0.00;;;;;19.14;52.88;101739.66;5124921;27;45254;-59
2021/06/08 02:56:06;;;;;;;;;0.00;0.00;;;;;19.11;53.24;101733.78;5124769;27;45256;-59
2021/06/08 02:58:34;;;;;;;;;0.00;0.00;;;;;19.08;53.12;101729.63;5124443;27;47038;-59
2021/06/08 03:00:59;;;;;;;;;0.00;0.00;;;;;19.06;53.58;101734.25;5105547;27;45595;-59
2021/06/08 03:03:33;;;;;;;;;0.00;0.00;;;;;19.04;53.11;101731.72;5109150;27;45466;-60
2021/06/08 03:06:04;;;;;;;;;0.00;0.00;;;;;19.02;53.06;101743.53;5104474;27;45241;-59
2021/06/08 03:08:34;;;;;;;;;0.00;0.00;;;;;19.02;53.14;101746.19;5103925;27;45522;-59
2021/06/08 03:11:03;;;;;;;;;0.00;0.00;;;;;18.99;53.38;101742.00;5104067;27;45446;-59
2021/06/08 03:13:32;;;;;;;;;0.00;0.00;;;;;18.96;53.00;101744.13;5103451;27;45394;-60
2021/06/08 03:16:00;;;;;;;;;0.00;0.00;;;;;18.91;53.21;101736.59;5112875;27;45277;-60
2021/06/08 03:18:28;;;;;;;;;0.00;0.00;;;;;18.89;53.24;101743.88;5124232;27;46450;-59
2021/06/08 03:21:03;;;;;;;;;0.00;0.00;;;;;18.84;52.93;101740.84;5124214;27;45318;-60
2021/06/08 03:23:37;;;;;;;;;0.00;0.00;;;;;18.82;53.15;101748.13;5124354;27;45328;-59
2021/06/08 03:26:05;;;;;;;;;0.00;0.00;;;;;18.78;53.46;101744.91;5124327;27;45459;-59
2021/06/08 03:28:33;;;;;;;;;0.00;0.00;;;;;18.77;53.24;101739.72;5123568;27;46477;-59
2021/06/08 03:31:01;;;;;;;;;0.00;0.00;;;;;18.74;53.09;101745.34;5124150;27;45179;-59
2021/06/08 03:33:26;;;;;;;;;0.00;0.00;;;;;18.74;53.45;101742.69;5124060;27;45314;-59
2021/06/08 03:35:56;;;;;;;;;0.00;0.00;;;;;18.72;53.29;101750.78;5124290;27;45352;-59
2021/06/08 03:38:24;;;;;;;;;0.00;0.00;;;;;18.71;53.69;101748.31;5123814;27;45610;-59
2021/06/08 03:40:51;;;;;;;;;0.00;0.00;;;;;18.65;53.50;101741.75;5123904;27;45326;-58
2021/06/08 03:43:17;;;;;;;;;0.00;0.00;;;;;18.68;53.68;101751.25;5123768;27;45267;-60
2021/06/08 03:45:47;;;;;;;;;0.00;0.00;;;;;18.68;53.52;101752.06;5124278;27;45405;-59
2021/06/08 03:48:14;;;;;;;;;0.00;0.00;;;;;18.65;53.65;101750.56;5123903;27;45773;-59
2021/06/08 03:50:40;;;;;;;;;0.00;0.00;;;;;18.65;53.79;101750.56;5123625;27;45343;-59
2021/06/08 03:53:05;;;;;;;;;0.00;0.00;;;;;18.65;53.62;101753.22;5123936;27;45564;-58
2021/06/08 03:55:31;;;;;;;;;0.00;0.00;;;;;18.67;53.55;101757.56;5122515;27;45329;-59
2021/06/08 03:58:00;;;;;;;;;0.00;0.00;;;;;18.64;53.65;101748.88;5123397;27;46293;-58
2021/06/08 04:00:25;;;;;;;;;0.00;0.00;;;;;18.65;53.85;101749.72;5109555;27;45208;-58
2021/06/08 04:02:52;;;;;;;;;0.00;0.00;;;;;18.63;53.56;101747.19;5103382;27;45442;-59
2021/06/08 04:05:18;;;;;;;;;0.00;0.00;;;;;18.62;53.75;101745.53;5109821;27;45277;-59
2021/06/08 04:07:46;;;;;;;;;0.00;0.00;;;;;18.61;53.53;101749.16;5103133;27;45426;-59
2021/06/08 04:10:20;;;;;;;;;0.00;0.00;;;;;18.62;53.64;101752.69;5116935;27;45317;-59
2021/06/08 04:12:45;;;;;;;;;0.00;0.00;;;;;18.68;53.58;101754.75;5123202;27;45308;-59
2021/06/08 04:15:12;;;;;;;;;0.00;0.00;;;;;18.77;53.45;101755.69;5123528;27;45563;-60
2021/06/08 04:17:38;;;;;;;;;0.00;0.00;;;;;18.84;53.67;101744.31;5123472;27;46513;-59
2021/06/08 04:20:05;;;;;;;;;0.00;0.00;;;;;18.92;53.31;101751.59;5123324;27;45498;-59
2021/06/08 04:22:32;;;;;;;;;0.00;0.00;;;;;18.95;53.58;101745.94;5123509;27;45182;-59
2021/06/08 04:24:58;;;;;;;;;0.00;0.00;;;;;19.00;53.09;101751.66;5122922;27;45193;-58
2021/06/08 04:27:25;;;;;;;;;0.00;0.00;;;;;19.04;53.00;101758.34;5123036;27;47462;-59
2021/06/08 04:29:52;;;;;;;;;0.00;0.00;;;;;19.07;52.92;101754.56;5122766;27;45271;-59
2021/06/08 04:32:18;;;;;;;;;0.00;0.00;;;;;19.09;52.88;101757.91;5123250;27;45344;-60
2021/06/08 04:34:55;;;;;;;;;0.00;0.00;;;;;19.08;52.63;101758.06;5123245;27;45380;-59
2021/06/08 04:37:21;;;;;;;;;0.00;0.00;;;;;19.10;52.61;101753.44;5123012;27;45726;-60
2021/06/08 04:39:47;;;;;;;;;0.00;0.00;;;;;19.08;52.91;101750.09;5123028;27;45355;-60
2021/06/08 04:42:16;;;;;;;;;0.00;0.00;;;;;19.13;52.82;101751.28;5122999;27;45506;-59
2021/06/08 04:44:46;;;;;;;;;0.00;0.00;;;;;19.19;52.81;101761.34;5122716;27;45589;-58
2021/06/08 04:47:15;;;;;;;;;0.00;0.00;;;;;19.22;52.30;101769.06;5122830;27;45507;-58
2021/06/08 04:49:40;;;;;;;;;0.00;0.00;;;;;19.23;52.33;101768.03;5122275;27;45389;-58
2021/06/08 04:52:06;;;;;;;;;0.00;0.00;;;;;19.21;52.40;101775.34;5122490;27;45328;-58
2021/06/08 04:54:33;;;;;;;;;0.00;0.00;;;;;19.19;52.77;101765.84;5122581;27;45345;-59
2021/06/08 04:57:00;;;;;;;;;0.00;0.00;;;;;19.15;52.75;101767.97;5103855;27;47337;-58
2021/06/08 04:59:40;;;;;;;;;0.00;0.00;;;;;19.14;52.94;101770.78;5116432;27;45246;-59
2021/06/08 05:02:14;;;;;;;;;0.00;0.00;;;;;19.16;52.79;101774.97;5101952;27;45331;-59
2021/06/08 05:04:40;;;;;;;;;0.00;0.00;;;;;19.22;52.36;101770.84;5090246;27;45607;-59
2021/06/08 05:07:09;;;;;;;;;0.00;0.00;;;;;19.25;52.07;101770.56;5119814;27;46455;-59
2021/06/08 05:09:41;;;;;;;;;0.00;0.00;;;;;19.27;52.53;101772.09;5122665;27;45312;-60
2021/06/08 05:12:09;;;;;;;;;0.00;0.00;;;;;19.32;52.50;101771.63;5122356;27;45304;-59
2021/06/08 05:14:37;;;;;;;;;0.00;0.00;;;;;19.38;52.37;101770.19;5122177;27;45163;-60
2021/06/08 05:17:03;;;;;;;;;0.00;0.00;;;;;19.45;51.90;101763.25;5122307;27;45247;-60
2021/06/08 05:19:32;;;;;;;;;0.00;0.00;;;;;19.52;52.00;101777.63;5122256;27;45313;-59
2021/06/08 05:21:58;;;;;;;;;0.00;0.00;;;;;19.61;52.08;101774.06;5121110;27;45331;-60
2021/06/08 05:24:24;;;;;;;;;0.00;0.00;;;;;19.70;51.71;101775.03;5122646;27;45294;-59
2021/06/08 05:26:52;;;;;;;;;0.00;0.00;;;;;19.79;51.30;101771.41;5122153;27;46636;-58
2021/06/08 05:29:19;;;;;;;;;0.00;0.00;;;;;19.83;51.52;101772.78;5121846;27;45253;-59
2021/06/08 05:31:46;;;;;;;;;0.00;0.00;;;;;19.85;51.32;101770.81;5121950;27;45263;-59
2021/06/08 05:34:12;;;;;;;;;0.00;0.00;;;;;19.87;51.07;101779.50;5121901;27;45329;-59
2021/06/08 05:36:40;;;;;;;;;0.00;0.00;;;;;19.88;51.36;101777.66;5121757;27;46173;-59
2021/06/08 05:39:07;;;;;;;;;0.00;0.00;;;;;19.91;51.01;101773.84;5122472;27;45236;-60
2021/06/08 05:41:33;;;;;;;;;0.00;0.00;;;;;19.90;51.15;101773.00;5121923;27;45189;-59
2021/06/08 05:43:58;;;;;;;;;0.00;0.00;;;;;19.97;51.20;101781.22;5121343;27;45476;-59
2021/06/08 05:46:28;;;;;;;;;0.00;0.00;;;;;20.02;50.87;101777.09;5121572;27;45507;-59
2021/06/08 05:48:54;;;;;;;;;0.00;0.00;;;;;20.10;50.93;101780.81;5121784;27;45504;-58
2021/06/08 05:51:20;;;;;;;;;0.00;0.00;;;;;20.14;51.24;101783.00;5121638;27;45274;-60
2021/06/08 05:53:47;;;;;;;;;0.00;0.00;;;;;20.27;50.83;101778.06;5121917;27;45466;-60
2021/06/08 05:56:13;;;;;;;;;0.00;0.00;;;;;20.40;50.56;101791.00;5121148;27;45782;-59
2021/06/08 05:58:39;;;;;;;;;0.00;0.00;;;;;20.56;50.00;101784.94;5120990;27;45274;-59
2021/06/08 06:01:09;;;;;;;;;0.00;0.00;;;;;20.75;49.97;101775.03;5101628;27;45319;-59
2021/06/08 06:03:36;;;;;;;;;0.00;0.00;;;;;20.90;49.49;101779.56;5107930;27;45396;-59
2021/06/08 06:06:03;;;;;;;;;0.00;0.00;;;;;21.02;49.26;101785.47;5101219;27;46599;-60
2021/06/08 06:08:29;;;;;;;;;0.00;0.00;;;;;21.22;49.17;101778.00;5115347;27;45176;-60
2021/06/08 06:10:58;;;;;;;;;0.00;0.00;;;;;21.49;48.53;101782.25;5121104;27;45337;-60
2021/06/08 06:13:26;;;;;;;;;0.00;0.00;;;;;21.84;47.85;101784.78;5121048;27;45350;-61
2021/06/08 06:15:52;;;;;;;;;0.00;0.00;;;;;22.14;47.49;101783.25;5121267;27;45568;-61
2021/06/08 06:18:19;;;;;;;;;0.00;0.00;;;;;22.49;46.94;101782.00;5121949;27;45253;-59
2021/06/08 06:20:46;;;;;;;;;0.00;0.00;;;;;22.87;46.21;101775.97;5124315;27;45297;-59
2021/06/08 06:23:15;;;;;;;;;0.00;0.00;;;;;23.17;45.95;101778.88;5103501;27;45415;-59
2021/06/08 06:25:40;;;;;;;;;0.00;0.00;;;;;23.34;45.06;101780.44;5124610;27;45675;-59
2021/06/08 06:28:10;;;;;;;;;0.00;0.00;;;;;23.55;44.66;101779.78;5116812;27;45388;-60
2021/06/08 06:30:36;;;;;;;;;0.00;0.00;;;;;23.71;44.01;101779.66;5119555;27;45426;-60
2021/06/08 06:33:01;;;;;;;;;0.00;0.00;;;;;23.90;43.85;101780.19;5112010;27;45478;-59
2021/06/08 06:35:27;;;;;;;;;0.00;0.00;;;;;24.15;43.35;101784.31;5124082;27;45348;-59
2021/06/08 06:37:53;;;;;;;;;0.00;0.00;;;;;24.35;42.89;101789.13;5123398;27;45535;-59
2021/06/08 06:40:27;;;;;;;;;0.00;0.00;;;;;24.58;42.81;101794.44;5122958;27;45358;-59
2021/06/08 06:42:59;;;;;;;;;0.00;0.00;;;;;24.77;42.34;101795.69;5112543;27;45630;-59
2021/06/08 06:45:26;;;;;;;;;0.00;0.00;;;;;24.97;42.31;101793.28;5121988;27;45413;-59
2021/06/08 06:47:54;;;;;;;;;0.00;0.00;;;;;25.13;41.31;101793.03;5107093;27;45276;-59
2021/06/08 06:50:24;;;;;;;;;0.00;0.00;;;;;25.36;41.55;101794.78;5122827;27;45266;-59
2021/06/08 06:52:55;;;;;;;;;0.00;0.00;;;;;25.42;41.26;101793.16;5123079;27;45362;-60
2021/06/08 06:55:22;;;;;;;;;0.00;0.00;;;;;25.55;41.24;101793.28;5122333;27;46625;-59
2021/06/08 06:57:48;;;;;;;;;0.00;0.00;;;;;25.79;40.69;101792.88;5109680;27;45264;-59
2021/06/08 07:00:15;;;;;;;;;0.00;0.00;;;;;26.02;40.20;101802.59;5119356;27;45672;-65
2021/06/08 07:02:41;;;;;;;;;0.00;0.00;;;;;26.21;39.84;101801.09;5118945;27;47594;-60
2021/06/08 07:05:12;;;;;;;;;0.00;0.00;;;;;26.44;39.14;101802.69;5114404;27;45277;-60
2021/06/08 07:07:38;;;;;;;;;0.00;0.00;;;;;26.66;38.78;101801.59;5123385;27;45444;-59
2021/06/08 07:10:07;;;;;;;;;0.00;0.00;;;;;26.89;39.30;101809.38;5095579;27;46501;-59
2021/06/08 07:12:33;;;;;;;;;0.00;0.00;;;;;27.13;38.31;101808.00;5111737;27;45451;-60
2021/06/08 07:14:58;;;;;;;;;0.00;0.00;;;;;27.45;37.67;101804.75;5104622;27;46128;-58
2021/06/08 07:17:24;;;;;;;;;0.00;0.00;;;;;27.78;37.41;101802.09;5118893;27;45302;-60
2021/06/08 07:19:52;;;;;;;;;0.00;0.00;;;;;28.02;36.36;101790.66;5105030;27;45454;-60
2021/06/08 07:22:19;;;;;;;;;0.00;0.00;;;;;28.19;36.34;101792.94;5100383;27;45651;-58
2021/06/08 07:24:44;;;;;;;;;0.00;0.00;;;;;28.43;35.99;101794.13;5116188;27;46335;-60
2021/06/08 07:27:14;;;;;;;;;0.00;0.00;;;;;28.68;35.54;101793.44;5118591;27;45352;-59
2021/06/08 07:29:43;;;;;;;;;0.00;0.00;;;;;28.87;35.22;101797.94;5096067;27;45555;-58
2021/06/08 07:32:20;;;;;;;;;0.00;0.00;;;;;29.06;34.52;101792.66;5113932;27;45546;-60
2021/06/08 07:35:18;;;;;;;;;0.00;0.00;;;;;29.21;34.44;101782.38;5123320;27;46648;-59
2021/06/08 07:37:48;;;;;;;;;0.00;0.00;;;;;29.41;34.23;101779.53;5104374;27;45298;-59
2021/06/08 07:40:22;;;;;;;;;0.00;0.00;;;;;29.63;33.82;101793.53;5099539;27;45266;-60
2021/06/08 07:42:57;;;;;;;;;0.00;0.00;;;;;29.75;33.22;101791.78;5115419;27;45202;-59
2021/06/08 07:45:32;;;;;;;;;0.00;0.00;;;;;29.92;33.48;101785.81;5102836;27;46284;-60
2021/06/08 07:48:00;;;;;;;;;0.00;0.00;;;;;30.21;33.11;101790.50;5116241;27;45187;-59
2021/06/08 07:50:30;;;;;;;;;0.00;0.00;;;;;30.48;31.95;101794.88;5108698;27;45426;-58
2021/06/08 07:52:56;;;;;;;;;0.00;0.00;;;;;30.66;32.61;101795.66;5102734;27;45427;-60
2021/06/08 07:55:22;;;;;;;;;0.00;0.00;;;;;30.84;31.70;101794.81;5102383;27;47138;-58
2021/06/08 07:57:48;;;;;;;;;0.00;0.00;;;;;31.06;31.40;101787.03;5104865;27;45444;-60
2021/06/08 08:00:15;;;;;;;;;0.00;0.00;;;;;31.26;31.75;101794.06;5114140;27;45243;-59
2021/06/08 08:02:42;;;;;;;;;0.00;0.00;;;;;31.45;30.39;101787.50;5113197;27;45381;-59
2021/06/08 08:05:11;;;;;;;;;0.00;0.00;;;;;31.68;30.29;101784.00;5099706;27;46115;-59
2021/06/08 08:07:38;;;;;;;;;0.00;0.00;;;;;31.86;30.18;101780.34;5118922;27;45439;-59
2021/06/08 08:10:05;;;;;;;;;0.00;0.00;;;;;32.01;29.46;101785.34;5115132;27;45363;-60
2021/06/08 08:12:41;;;;;;;;;0.00;0.00;;;;;32.30;29.81;101788.13;5112378;27;45631;-59
2021/06/08 08:15:09;;;;;;;;;0.00;0.00;;;;;32.54;29.17;101782.69;5115388;27;45602;-59
2021/06/08 08:17:36;;;;;;;;;0.00;0.00;;;;;32.84;29.54;101787.88;5110746;27;45330;-59
2021/06/08 08:20:05;;;;;;;;;0.00;0.00;;;;;33.03;28.19;101788.53;5102776;27;45198;-58
2021/06/08 08:22:30;;;;;;;;;0.00;0.00;;;;;33.14;27.80;101784.13;5085858;27;47095;-59
2021/06/08 08:24:56;;;;;;;;;0.00;0.00;;;;;33.34;28.08;101775.47;5112945;27;45402;-60
2021/06/08 08:27:23;;;;;;;;;0.00;0.00;;;;;33.54;27.30;101775.78;5122171;27;45409;-59
2021/06/08 08:29:48;;;;;;;;;0.00;0.00;;;;;33.79;27.05;101775.41;5103854;27;45432;-59
2021/06/08 08:32:14;;;;;;;;;0.00;0.00;;;;;33.99;26.78;101765.88;5118599;27;45242;-59
2021/06/08 08:34:42;;;;;;;;;0.00;0.00;;;;;34.35;26.92;101772.63;5120702;27;45439;-59
2021/06/08 08:37:07;;;;;;;;;0.00;0.00;;;;;34.89;26.57;101763.72;5111729;27;45471;-59
2021/06/08 08:39:33;;;;;;;;;0.00;0.00;;;;;35.63;25.85;101764.91;5108974;27;45143;-59
2021/06/08 08:41:58;;;;;;;;;0.00;0.00;;;;;36.41;24.71;101758.78;5118247;27;45196;-59
2021/06/08 08:44:25;;;;;;;;;0.00;0.00;;;;;37.42;23.80;101772.97;5121479;27;45411;-60
2021/06/08 08:46:52;;;;;;;;;0.00;0.00;;;;;38.55;23.00;101768.84;5120869;27;45337;-59
2021/06/08 08:49:17;;;;;;;;;0.00;0.00;;;;;39.90;21.32;101772.16;5113231;27;45383;-59
2021/06/08 08:51:43;;;;;;;;;0.00;0.00;;;;;41.00;20.24;101767.34;5114465;27;45419;-59
2021/06/08 08:54:11;;;;;;;;;0.00;0.00;;;;;42.18;18.98;101764.38;5121310;27;45295;-59
2021/06/08 08:56:38;;;;;;;;;0.00;0.00;;;;;43.12;18.23;101770.25;5121985;27;45288;-59
2021/06/08 08:59:13;;;;;;;;;0.00;0.00;;;;;44.29;17.33;101776.47;5121845;27;45237;-59
2021/06/08 09:01:41;;;;;;;;;0.00;0.00;;;;;45.17;15.84;101762.25;5102750;27;45268;-59
2021/06/08 09:04:07;;;;;;;;;0.00;0.00;;;;;45.76;15.26;101771.88;5104877;27;45365;-58
2021/06/08 09:06:33;;;;;;;;;0.00;0.00;;;;;46.79;15.75;101777.06;5083427;27;45314;-59
2021/06/08 09:08:58;;;;;;;;;0.00;0.00;;;;;48.01;14.59;101772.84;5110072;27;45461;-59
2021/06/08 09:11:24;;;;;;;;;0.00;0.00;;;;;48.83;13.67;101763.31;5107597;27;45333;-60
2021/06/08 09:13:49;;;;;;;;;0.00;0.00;;;;;49.33;12.69;101763.81;5108614;27;46841;-60
2021/06/08 09:16:15;;;;;;;;;0.00;0.00;;;;;49.99;12.79;101765.03;5112147;27;45453;-59
2021/06/08 09:18:41;;;;;;;;;0.00;0.00;;;;;50.59;11.81;101759.09;5113034;27;45378;-59
2021/06/08 09:21:15;;;;;;;;;0.00;0.00;;;;;51.08;11.40;101755.63;5108720;27;45535;-59
2021/06/08 09:23:40;;;;;;;;;0.00;0.00;;;;;51.21;11.49;101748.69;5112599;27;45462;-60
2021/06/08 09:26:06;;;;;;;;;0.00;0.00;;;;;51.26;11.43;101750.38;5103016;27;45226;-60
2021/06/08 09:28:37;;;;;;;;;0.00;0.00;;;;;51.27;10.90;101744.38;5112446;27;45539;-60
2021/06/08 09:31:05;;;;;;;;;0.00;0.00;;;;;51.05;11.05;101751.59;5117471;27;45475;-60
2021/06/08 09:33:30;;;;;;;;;0.00;0.00;;;;;50.99;11.03;101747.50;5121293;27;47349;-60
2021/06/08 09:36:02;;;;;;;;;0.00;0.00;;;;;50.58;11.10;101749.13;5116442;27;45440;-59
2021/06/08 09:38:42;;;;;;;;;0.00;0.00;;;;;49.80;11.75;101741.47;5111555;27;45261;-60
2021/06/08 09:41:12;;;;;;;;;0.00;0.00;;;;;48.94;11.92;101739.31;5100881;27;45426;-60
2021/06/08 09:43:58;;;;;;;;;0.00;0.00;;;;;48.39;13.25;101752.13;5112351;27;45493;-60
2021/06/08 09:46:28;;;;;;;;;0.00;0.00;;;;;48.00;13.30;101735.84;5104512;27;45263;-60
2021/06/08 09:49:03;;;;;;;;;0.00;0.00;;;;;47.74;13.12;101736.22;5116114;27;45490;-60
2021/06/08 09:51:54;;;;;;;;;0.00;0.00;;;;;47.62;12.72;101737.00;5119555;27;45534;-60
2021/06/08 09:54:33;;;;;;;;;0.00;0.00;;;;;47.65;12.57;101736.34;5113326;27;45444;-61
2021/06/08 09:57:19;;;;;;;;;0.00;0.00;;;;;47.23;13.21;101736.53;5107473;27;45342;-60
2021/06/08 09:59:59;;;;;;;;;0.00;0.00;;;;;46.70;12.98;101735.44;5120741;27;45484;-60
2021/06/08 10:02:38;;;;;;;;;0.00;0.00;;;;;46.33;13.46;101728.88;5124326;27;45315;-63
2021/06/08 10:05:19;;;;;;;;;0.00;0.00;;;;;45.98;14.34;101731.88;5111037;27;48036;-63
2021/06/08 10:07:45;;;;;;;;;0.00;0.00;;;;;45.96;14.17;101726.66;5094977;27;45328;-61
2021/06/08 10:10:12;;;;;;;;;0.00;0.00;;;;;46.17;13.82;101723.94;5122662;27;45404;-60
2021/06/08 10:13:00;;;;;;;;;0.00;0.00;;;;;46.70;12.92;101718.75;5118170;27;45644;-62
2021/06/08 10:15:31;;;;;;;;;0.00;0.00;;;;;47.38;12.55;101723.91;5105402;27;47223;-61
2021/06/08 10:18:00;;;;;;;;;0.00;0.00;;;;;46.44;12.70;101719.81;5124394;27;45194;-59
2021/06/08 10:20:30;;;;;;;;;0.00;0.00;;;;;45.43;13.13;101719.78;5124304;27;45396;-61
2021/06/08 10:22:57;;;;;;;;;1.25;0.00;;;;;43.54;13.50;101723.81;5123960;27;45627;-60
2021/06/08 10:25:22;;;;;;;;;0.00;0.00;;;;;41.50;14.93;101716.34;5124552;27;47109;-61
2021/06/08 10:27:48;;;;;;;;;0.00;0.00;;;;;40.02;16.07;101708.47;5123821;27;45221;-61
2021/06/08 10:30:14;;;;;;;;;0.00;0.00;;;;;39.10;16.38;101719.31;5122512;27;45485;-61
2021/06/08 10:32:39;;;;;;;;;0.00;0.00;;;;;39.88;16.16;101711.94;5124277;27;45450;-61
2021/06/08 10:35:07;;;;;;;;;0.00;0.00;;;;;38.66;16.71;101714.66;5123557;27;46719;-61
2021/06/08 10:37:34;;;;;;;;;0.00;0.00;;;;;40.24;16.29;101702.38;5123268;27;45339;-60
2021/06/08 10:40:00;;;;;;;;;0.00;0.00;;;;;42.12;14.53;101708.50;5124005;27;45407;-61
2021/06/08 10:42:29;;;;;;;;;0.00;0.00;;;;;43.33;14.67;101710.56;5123909;27;46320;-61
2021/06/08 10:45:10;;;;;;;;;0.00;0.00;;;;;43.68;14.33;101712.66;5123289;27;46248;-62
2021/06/08 10:47:44;;;;;;;;;1.00;1.00;;;;;43.67;14.29;101711.03;5123640;27;45248;-60
2021/06/08 10:50:31;;;;;;;;;0.00;0.00;;;;;42.82;14.65;101703.56;5123595;27;45428;-61
2021/06/08 10:52:58;;;;;;;;;0.00;0.00;;;;;42.39;14.50;101702.06;5123923;27;45313;-61
2021/06/08 10:55:34;;;;;;;;;0.00;0.00;;;;;42.32;15.41;101698.94;5123034;27;47042;-61
2021/06/08 10:58:00;;;;;;;;;0.00;0.00;;;;;42.21;15.37;101692.00;5102969;27;45456;-61
2021/06/08 11:00:25;;;;;;;;;0.00;0.00;;;;;42.25;15.16;101686.66;5117846;27;45347;-60
2021/06/08 11:03:00;;;;;;;;;0.00;0.00;;;;;42.32;15.10;101685.13;5123227;27;45334;-60
2021/06/08 11:05:43;;;;;;;;;0.00;0.00;;;;;42.42;14.97;101689.59;5121851;27;47015;-60
2021/06/08 11:08:10;;;;;;;;;0.00;0.00;;;;;42.47;14.00;101694.22;5114718;27;45473;-62
2021/06/08 11:10:42;;;;;;;;;0.00;0.00;;;;;42.11;14.85;101698.56;5084589;27;45417;-61
2021/06/08 11:13:11;;;;;;;;;0.00;0.00;;;;;41.50;15.37;101689.59;5122711;27;45463;-61
2021/06/08 11:15:47;;;;;;;;;0.00;0.00;;;;;40.58;15.56;101691.97;5114141;27;45698;-60
2021/06/08 11:18:22;;;;;;;;;0.00;0.00;;;;;39.51;16.48;101694.19;5092021;27;45551;-60
2021/06/08 11:20:48;;;;;;;;;0.00;0.00;;;;;38.95;16.42;101697.47;5115548;27;45435;-61
2021/06/08 11:23:34;;;;;;;;;0.00;0.00;;;;;38.54;16.88;101692.25;5111479;27;45491;-60
2021/06/08 11:26:01;;;;;;;;;0.00;0.00;;;;;38.22;17.38;101685.28;5118386;27;45681;-60
2021/06/08 11:28:47;;;;;;;;;0.00;0.00;;;;;38.12;17.49;101680.69;5115024;27;45803;-61
2021/06/08 11:31:15;;;;;;;;;0.00;0.00;;;;;38.10;16.88;101682.91;5121091;27;45387;-60